Time;durP1;ratioP1;P1;durP2;ratioP2;P2;SDS_P1;SDS_P2;PMS_P1;PMS_P2;Temp;Humidity;BMP_temperature;BMP_pressure;BME280_temperature;BME280_humidity;BME280_pressure;Samples;Min_cycle;Max_cycle;Signal;HPM_P1;HPM_P2
2022/03/19 00:00:34;;;;;;;83.10;39.23;;;5.20;99.90;;;;;;4995333;28;20207;-83
2022/03/19 00:02:59;;;;;;;83.77;37.03;;;5.10;99.90;;;;;;4990486;28;20571;-84
2022/03/19 00:05:25;;;;;;;75.70;36.33;;;5.10;99.90;;;;;;4995738;28;20210;-83
2022/03/19 00:07:51;;;;;;;81.83;38.90;;;5.20;99.90;;;;;;4998270;28;20199;-83
2022/03/19 00:10:18;;;;;;;86.47;37.30;;;5.10;99.90;;;;;;4997509;28;20571;-83
2022/03/19 00:12:43;;;;;;;87.07;37.30;;;5.10;99.90;;;;;;4997418;28;20442;-83
2022/03/19 00:15:10;;;;;;;90.83;39.20;;;5.10;99.90;;;;;;4997572;28;20775;-83
2022/03/19 00:17:36;;;;;;;67.00;35.10;;;5.10;99.90;;;;;;4998293;28;20214;-83
2022/03/19 00:20:03;;;;;;;80.18;37.03;;;5.10;99.90;;;;;;4997742;28;20181;-83
2022/03/19 00:22:29;;;;;;;83.95;38.20;;;5.10;99.90;;;;;;4997888;28;20202;-83
2022/03/19 00:24:54;;;;;;;77.13;37.17;;;5.00;99.90;;;;;;4996248;28;20631;-83
2022/03/19 00:27:20;;;;;;;75.30;36.83;;;5.10;99.90;;;;;;4993712;28;20442;-83
2022/03/19 00:29:46;;;;;;;86.50;38.67;;;5.10;99.90;;;;;;4996503;28;20178;-84
2022/03/19 00:32:11;;;;;;;86.53;38.13;;;5.00;99.90;;;;;;4997292;28;20171;-83
2022/03/19 00:34:37;;;;;;;65.47;34.00;;;5.00;99.90;;;;;;4997413;28;20403;-83
2022/03/19 00:37:03;;;;;;;87.63;37.90;;;5.00;99.90;;;;;;4996084;28;20205;-83
2022/03/19 00:39:28;;;;;;;77.60;35.60;;;5.00;99.90;;;;;;4997562;28;20198;-83
2022/03/19 00:41:54;;;;;;;74.73;37.47;;;4.90;99.90;;;;;;4998149;28;20450;-83
2022/03/19 00:44:21;;;;;;;93.77;38.23;;;4.90;99.90;;;;;;4997586;28;20187;-83
2022/03/19 00:46:47;;;;;;;88.40;36.97;;;4.80;99.90;;;;;;4997137;28;20199;-84
2022/03/19 00:49:13;;;;;;;80.90;37.90;;;4.80;99.90;;;;;;4995856;28;20175;-83
2022/03/19 00:51:39;;;;;;;80.47;38.20;;;4.80;99.90;;;;;;4996249;28;20177;-84
2022/03/19 00:54:05;;;;;;;82.82;35.72;;;4.80;99.90;;;;;;4997507;28;20532;-84
2022/03/19 00:56:31;;;;;;;74.47;35.27;;;4.60;99.90;;;;;;4994695;28;20388;-84
2022/03/19 00:58:57;;;;;;;79.93;34.92;;;4.60;99.90;;;;;;4996405;28;20443;-83
2022/03/19 01:01:23;;;;;;;74.57;36.90;;;4.50;99.90;;;;;;4998141;28;20190;-83
2022/03/19 01:03:48;;;;;;;79.10;34.73;;;4.40;99.90;;;;;;4995927;28;20421;-83
2022/03/19 01:06:14;;;;;;;79.10;36.30;;;4.20;99.90;;;;;;4998486;28;20190;-83
2022/03/19 01:08:39;;;;;;;71.40;36.07;;;4.00;99.90;;;;;;4980778;28;20235;-84
2022/03/19 01:11:05;;;;;;;86.40;37.17;;;3.90;99.90;;;;;;4983454;28;20179;-83
2022/03/19 01:13:30;;;;;;;94.30;36.50;;;3.90;99.90;;;;;;4995823;28;20645;-83
2022/03/19 01:15:57;;;;;;;86.63;39.13;;;3.80;99.90;;;;;;4996822;28;20207;-84
2022/03/19 01:18:23;;;;;;;87.13;38.45;;;3.70;99.90;;;;;;4995261;28;20780;-83
2022/03/19 01:20:48;;;;;;;95.50;39.20;;;3.60;99.90;;;;;;4990549;28;20211;-83
2022/03/19 01:23:14;;;;;;;103.43;40.10;;;3.60;99.90;;;;;;4990288;28;20422;-82
2022/03/19 01:25:40;;;;;;;88.90;36.53;;;3.60;99.90;;;;;;4990743;28;20179;-83
2022/03/19 01:28:05;;;;;;;79.13;37.90;;;3.60;99.90;;;;;;4993938;28;20612;-82
2022/03/19 01:30:31;;;;;;;87.97;38.47;;;3.50;99.90;;;;;;4989278;28;20187;-82
2022/03/19 01:32:57;;;;;;;85.67;36.80;;;3.60;99.90;;;;;;4989044;28;20178;-84
2022/03/19 01:35:22;;;;;;;86.63;40.73;;;3.60;99.90;;;;;;4991505;28;20537;-84
2022/03/19 01:37:49;;;;;;;86.57;38.40;;;3.50;99.90;;;;;;4988338;28;20198;-83
2022/03/19 01:40:16;;;;;;;80.30;38.85;;;3.60;99.90;;;;;;4982112;28;20199;-83
2022/03/19 01:42:45;;;;;;;81.97;36.70;;;3.80;99.90;;;;;;4996379;28;20171;-84
2022/03/19 01:45:13;;;;;;;84.20;39.33;;;3.60;99.90;;;;;;4994698;28;20395;-83
2022/03/19 01:47:39;;;;;;;88.03;37.15;;;3.60;99.90;;;;;;4996039;28;20215;-83
2022/03/19 01:50:06;;;;;;;84.13;35.70;;;3.60;99.90;;;;;;4982447;28;20238;-81
2022/03/19 01:52:31;;;;;;;82.70;35.33;;;3.60;99.90;;;;;;4985545;28;20513;-82
2022/03/19 01:54:59;;;;;;;90.13;39.77;;;3.60;99.90;;;;;;4986200;28;20265;-82
2022/03/19 01:57:28;;;;;;;84.63;37.95;;;3.70;99.90;;;;;;4986345;28;20204;-81
2022/03/19 01:59:57;;;;;;;92.18;40.20;;;3.70;99.90;;;;;;4981482;28;20183;-84
2022/03/19 02:02:25;;;;;;;85.07;39.30;;;3.80;99.90;;;;;;4979283;28;20203;-82
2022/03/19 02:04:52;;;;;;;80.05;39.20;;;4.00;99.90;;;;;;4982979;28;20183;-82
2022/03/19 02:07:17;;;;;;;87.10;39.05;;;4.10;99.90;;;;;;4983998;28;20206;-81
2022/03/19 02:09:43;;;;;;;78.33;38.70;;;4.20;99.90;;;;;;4981521;28;20187;-83
2022/03/19 02:12:09;;;;;;;73.13;36.77;;;4.20;99.90;;;;;;4983007;28;20211;-81
2022/03/19 02:17:04;;;;;;;78.05;37.30;;;4.20;99.90;;;;;;4985138;28;20227;-86
2022/03/19 02:19:31;;;;;;;76.35;36.65;;;4.30;99.90;;;;;;4983614;28;20187;-84
2022/03/19 02:21:56;;;;;;;77.70;37.20;;;4.30;99.90;;;;;;4968899;28;20270;-84
2022/03/19 02:27:06;;;;;;;86.05;39.28;;;4.40;99.90;;;;;;4981294;28;20182;-84
2022/03/19 02:29:32;;;;;;;73.77;35.23;;;;;;;;;;4965973;28;20183;-86
2022/03/19 02:32:01;;;;;;;82.93;36.87;;;4.40;99.90;;;;;;4970877;28;20192;-85
2022/03/19 02:34:27;;;;;;;82.45;38.28;;;4.40;99.90;;;;;;4964631;28;20467;-85
2022/03/19 02:36:53;;;;;;;83.78;35.80;;;4.40;99.90;;;;;;4964459;28;20271;-86
2022/03/19 02:39:21;;;;;;;70.53;36.15;;;4.40;99.90;;;;;;4967962;28;20195;-85
2022/03/19 02:41:49;;;;;;;83.40;37.22;;;4.40;99.90;;;;;;4967855;28;20175;-86
2022/03/19 02:44:16;;;;;;;79.47;35.47;;;4.40;99.90;;;;;;4967190;28;20207;-85
2022/03/19 02:46:46;;;;;;;76.38;35.83;;;4.40;99.90;;;;;;4962915;28;20600;-86
2022/03/19 02:49:12;;;;;;;78.03;34.63;;;4.40;99.90;;;;;;4977187;28;20180;-85
2022/03/19 02:51:39;;;;;;;75.00;34.58;;;4.40;99.90;;;;;;4982316;28;20656;-86
2022/03/19 02:54:09;;;;;;;74.28;36.83;;;4.40;99.90;;;;;;4979113;28;20199;-86
2022/03/19 02:56:36;;;;;;;70.03;33.67;;;4.30;99.90;;;;;;4971992;28;20238;-85
2022/03/19 02:59:13;;;;;;;73.65;35.53;;;4.30;99.90;;;;;;4971904;28;20178;-85
2022/03/19 03:01:39;;;;;;;79.57;37.10;;;4.30;99.90;;;;;;4981119;28;20171;-86
2022/03/19 03:04:06;;;;;;;73.88;37.20;;;4.30;99.90;;;;;;4964977;28;20231;-86
2022/03/19 03:06:43;;;;;;;81.28;38.97;;;4.20;99.90;;;;;;4981419;28;20557;-85
2022/03/19 03:09:09;;;;;;;83.40;37.17;;;4.20;99.90;;;;;;4965862;28;20187;-85
2022/03/19 03:11:38;;;;;;;79.70;37.40;;;4.20;99.90;;;;;;4985214;28;20191;-83
2022/03/19 03:14:05;;;;;;;80.55;36.58;;;4.20;99.90;;;;;;4965497;28;20226;-85
2022/03/19 03:16:31;;;;;;;72.78;35.55;;;4.20;99.90;;;;;;4985622;28;20214;-86
2022/03/19 03:19:00;;;;;;;72.78;36.60;;;4.20;99.90;;;;;;4984168;28;20264;-86
2022/03/19 03:21:27;;;;;;;84.07;38.38;;;4.10;99.90;;;;;;4986595;28;20180;-87
2022/03/19 03:23:53;;;;;;;70.15;36.33;;;4.20;99.90;;;;;;4987274;28;20172;-86
2022/03/19 03:26:19;;;;;;;69.03;35.83;;;4.10;99.90;;;;;;4987237;28;20180;-86
2022/03/19 03:28:45;;;;;;;66.80;36.97;;;4.10;99.90;;;;;;4972249;28;20194;-85
2022/03/19 03:31:10;;;;;;;71.23;35.40;;;4.10;99.90;;;;;;4970451;28;20183;-86
2022/03/19 03:33:36;;;;;;;76.23;34.70;;;4.10;99.90;;;;;;4969718;28;20184;-86
2022/03/19 03:36:02;;;;;;;79.43;36.53;;;4.10;99.90;;;;;;4984818;28;20204;-85
2022/03/19 03:38:27;;;;;;;77.00;38.07;;;4.10;99.90;;;;;;4986670;28;20209;-83
2022/03/19 03:40:53;;;;;;;76.57;38.50;;;4.10;99.90;;;;;;4972528;28;20242;-84
2022/03/19 03:43:19;;;;;;;75.00;36.20;;;4.10;99.90;;;;;;4975617;28;20203;-85
2022/03/19 03:45:45;;;;;;;79.10;34.33;;;4.00;99.90;;;;;;4987603;28;20450;-86
2022/03/19 03:48:11;;;;;;;67.97;34.33;;;4.00;99.90;;;;;;4985958;28;20195;-82
2022/03/19 03:50:37;;;;;;;79.63;33.73;;;3.90;99.90;;;;;;4986680;28;20188;-84
2022/03/19 03:53:04;;;;;;;76.68;35.78;;;3.80;99.90;;;;;;4986086;28;20683;-82
2022/03/19 03:55:31;;;;;;;78.63;35.97;;;3.80;99.90;;;;;;4978286;28;20230;-82
2022/03/19 03:57:57;;;;;;;73.80;37.00;;;3.80;99.90;;;;;;4990193;28;20855;-83
2022/03/19 04:00:23;;;;;;;70.67;34.87;;;3.80;99.90;;;;;;4984813;28;20265;-84
2022/03/19 04:02:48;;;;;;;87.27;36.00;;;3.80;99.90;;;;;;4975101;28;20446;-84
2022/03/19 04:05:14;;;;;;;75.23;35.90;;;3.70;99.90;;;;;;4975670;28;20239;-84
2022/03/19 04:07:39;;;;;;;71.73;35.53;;;3.70;99.90;;;;;;4987195;28;20196;-82
2022/03/19 04:10:06;;;;;;;72.23;36.63;;;3.60;99.90;;;;;;4978800;28;20616;-84
2022/03/19 04:12:31;;;;;;;71.93;34.55;;;3.50;99.90;;;;;;4986213;28;20191;-84
2022/03/19 04:14:57;;;;;;;75.00;37.17;;;3.50;99.90;;;;;;4970279;28;20203;-83
2022/03/19 04:17:22;;;;;;;86.70;39.97;;;3.40;99.90;;;;;;4976674;28;20179;-81
2022/03/19 04:19:48;;;;;;;92.10;38.10;;;3.40;99.90;;;;;;4982429;28;20191;-83
2022/03/19 04:22:13;;;;;;;90.30;39.57;;;3.40;99.90;;;;;;4968165;28;20175;-82
2022/03/19 04:24:39;;;;;;;82.37;40.03;;;3.40;99.90;;;;;;4967969;28;20218;-83
2022/03/19 04:27:05;;;;;;;88.87;36.20;;;3.60;99.90;;;;;;4985828;28;20187;-84
2022/03/19 04:29:30;;;;;;;95.70;40.43;;;3.60;99.90;;;;;;4976619;28;20218;-84
2022/03/19 04:31:56;;;;;;;84.97;36.73;;;3.60;99.90;;;;;;4977281;28;20202;-85
2022/03/19 04:34:22;;;;;;;71.43;37.10;;;3.70;99.90;;;;;;4978543;28;20316;-85
2022/03/19 04:36:48;;;;;;;76.43;36.30;;;3.70;99.90;;;;;;4971281;28;20458;-84
2022/03/19 04:39:14;;;;;;;74.88;36.63;;;3.70;99.90;;;;;;4984773;28;20212;-83
2022/03/19 04:41:40;;;;;;;84.67;37.90;;;3.70;99.90;;;;;;4986909;28;20175;-84
2022/03/19 04:44:06;;;;;;;73.85;35.45;;;3.70;99.90;;;;;;4973608;28;20636;-84
2022/03/19 04:46:32;;;;;;;76.40;35.95;;;3.70;99.90;;;;;;4975974;28;20187;-83
2022/03/19 04:48:57;;;;;;;75.07;35.27;;;3.70;99.90;;;;;;4986234;28;20184;-83
2022/03/19 04:51:36;;;;;;;78.40;38.77;;;3.70;99.90;;;;;;4985722;28;20273;-83
2022/03/19 04:54:02;;;;;;;77.47;35.95;;;3.70;99.90;;;;;;4985410;28;20206;-83
2022/03/19 04:56:29;;;;;;;85.90;36.88;;;3.60;99.90;;;;;;4988654;28;20262;-84
2022/03/19 04:58:56;;;;;;;81.45;37.08;;;3.60;99.90;;;;;;4969330;28;20230;-83
2022/03/19 05:01:30;;;;;;;80.82;37.83;;;3.40;99.90;;;;;;4986842;28;20320;-83
2022/03/19 05:03:56;;;;;;;76.22;34.42;;;3.10;99.90;;;;;;4981189;28;20168;-83
2022/03/19 05:06:21;;;;;;;79.43;36.77;;;3.00;99.90;;;;;;4969746;28;20200;-84
2022/03/19 05:11:35;;;;;;;69.63;33.35;;;2.70;99.90;;;;;;4988140;28;20194;-84
2022/03/19 05:14:00;;;;;;;77.70;35.47;;;2.40;99.90;;;;;;4987554;28;20665;-85
2022/03/19 05:16:26;;;;;;;79.33;34.67;;;2.40;99.90;;;;;;4972607;28;20223;-86
2022/03/19 05:18:51;;;;;;;76.30;35.57;;;2.30;99.90;;;;;;4983071;28;20272;-86
2022/03/19 05:21:17;;;;;;;78.90;36.60;;;2.00;99.90;;;;;;4966056;28;20401;-85
2022/03/19 05:23:45;;;;;;;77.37;37.63;;;2.00;99.90;;;;;;4972366;28;20195;-85
2022/03/19 05:26:11;;;;;;;82.18;36.30;;;2.10;99.90;;;;;;4986907;28;20445;-84
2022/03/19 05:28:37;;;;;;;87.40;37.92;;;2.10;99.90;;;;;;4968958;28;20184;-85
2022/03/19 05:31:03;;;;;;;81.22;36.90;;;2.00;99.90;;;;;;4964872;28;20176;-84
2022/03/19 05:36:13;;;;;;;98.57;37.67;;;2.10;99.90;;;;;;4985777;28;20210;-83
2022/03/19 05:38:39;;;;;;;77.10;36.77;;;2.00;99.90;;;;;;4972935;28;20184;-83
2022/03/19 05:41:04;;;;;;;87.73;36.93;;;2.00;99.90;;;;;;4970171;28;20274;-83
2022/03/19 05:43:30;;;;;;;81.23;36.30;;;2.00;99.90;;;;;;4968216;28;20584;-84
2022/03/19 05:45:57;;;;;;;89.27;38.30;;;2.10;99.90;;;;;;4986067;28;20873;-83
2022/03/19 05:48:22;;;;;;;88.70;39.05;;;2.20;99.90;;;;;;4973140;28;20196;-83
2022/03/19 05:50:47;;;;;;;95.10;39.40;;;2.40;99.90;;;;;;4984422;28;20194;-83
2022/03/19 05:53:13;;;;;;;90.30;38.03;;;2.60;99.90;;;;;;4977566;28;20233;-83
2022/03/19 05:55:39;;;;;;;86.70;38.40;;;2.90;99.90;;;;;;4978106;28;20214;-84
2022/03/19 05:58:04;;;;;;;82.33;36.13;;;3.20;99.90;;;;;;4964775;28;20186;-82
2022/03/19 06:00:29;;;;;;;82.07;37.20;;;3.60;99.90;;;;;;4984574;28;20231;-82
2022/03/19 06:02:55;;;;;;;80.30;34.60;;;4.00;99.90;;;;;;4980556;28;20179;-82
2022/03/19 06:05:20;;;;;;;76.23;34.47;;;4.50;99.90;;;;;;4970873;28;20622;-82
2022/03/19 06:07:46;;;;;;;63.67;32.33;;;4.90;99.90;;;;;;4988161;28;20187;-82
2022/03/19 06:10:12;;;;;;;82.47;35.33;;;5.40;99.90;;;;;;4985635;28;20186;-83
2022/03/19 06:12:37;;;;;;;66.73;31.60;;;6.00;99.90;;;;;;4971068;28;20188;-83
2022/03/19 06:15:03;;;;;;;58.80;30.53;;;6.70;99.90;;;;;;4984077;28;20207;-83
2022/03/19 06:17:29;;;;;;;61.03;29.20;;;7.30;99.90;;;;;;4967855;28;20274;-83
2022/03/19 06:19:55;;;;;;;51.37;26.90;;;7.80;99.90;;;;;;4980894;28;20271;-81
2022/03/19 06:22:22;;;;;;;61.67;29.13;;;8.30;99.90;;;;;;4989164;28;20234;-82
2022/03/19 06:24:48;;;;;;;59.33;29.73;;;8.10;99.90;;;;;;4988334;28;21013;-82
2022/03/19 06:27:13;;;;;;;65.57;28.60;;;8.10;99.90;;;;;;4989446;28;20194;-83
2022/03/19 06:29:39;;;;;;;57.23;29.60;;;8.20;99.90;;;;;;4978887;28;20196;-82
2022/03/19 06:32:04;;;;;;;58.77;30.07;;;8.50;99.90;;;;;;4972930;28;20184;-83
2022/03/19 06:34:31;;;;;;;54.37;25.83;;;8.60;99.90;;;;;;4985383;28;20698;-83
2022/03/19 06:39:41;;;;;;;54.97;27.73;;;9.00;99.90;;;;;;4993774;28;20238;-82
2022/03/19 06:42:07;;;;;;;49.00;26.10;;;9.20;99.90;;;;;;4992669;28;20195;-82
2022/03/19 06:44:33;;;;;;;53.40;27.50;;;9.50;99.90;;;;;;4995965;28;20255;-83
2022/03/19 06:46:59;;;;;;;52.80;26.98;;;9.80;99.90;;;;;;5001043;28;20273;-83
2022/03/19 06:49:30;;;;;;;49.00;26.47;;;10.00;99.90;;;;;;4999413;28;20646;-82
2022/03/19 06:51:56;;;;;;;49.80;25.63;;;9.90;99.90;;;;;;4998019;28;20571;-82
2022/03/19 06:54:21;;;;;;;47.00;24.97;;;10.10;99.90;;;;;;4995948;28;20195;-82
2022/03/19 06:56:47;;;;;;;43.97;23.37;;;10.60;99.90;;;;;;5001070;28;20214;-83
2022/03/19 06:59:13;;;;;;;49.07;25.30;;;10.80;99.90;;;;;;4983346;28;20179;-83
2022/03/19 07:01:39;;;;;;;56.33;28.20;;;11.20;99.90;;;;;;4992659;28;20262;-83
2022/03/19 07:04:05;;;;;;;43.42;24.55;;;11.60;99.90;;;;;;4976096;28;20206;-83
2022/03/19 07:06:31;;;;;;;44.77;25.07;;;12.10;99.90;;;;;;4976797;28;20191;-83
2022/03/19 07:08:57;;;;;;;47.47;27.03;;;12.70;99.90;;;;;;4982358;28;20433;-83
2022/03/19 07:11:22;;;;;;;49.47;26.20;;;13.30;99.90;;;;;;4984316;28;20183;-83
2022/03/19 07:13:48;;;;;;;51.90;28.47;;;13.60;99.90;;;;;;4988340;28;20680;-84
2022/03/19 07:16:15;;;;;;;44.43;24.70;;;13.60;99.90;;;;;;4969510;28;20277;-86
2022/03/19 07:18:41;;;;;;;51.17;27.20;;;13.30;99.90;;;;;;4991593;28;20211;-85
2022/03/19 07:21:07;;;;;;;51.60;28.33;;;13.60;99.90;;;;;;4978202;28;21053;-84
2022/03/19 07:23:33;;;;;;;47.53;27.60;;;13.40;99.90;;;;;;4991158;28;20184;-86
2022/03/19 07:25:59;;;;;;;48.13;27.23;;;13.20;99.90;;;;;;4976393;28;20233;-86
2022/03/19 07:28:26;;;;;;;55.70;26.77;;;13.20;99.90;;;;;;4979306;28;20198;-86
2022/03/19 07:30:51;;;;;;;51.47;26.55;;;13.30;99.90;;;;;;4976545;28;20187;-85
2022/03/19 07:33:17;;;;;;;52.97;24.30;;;13.00;99.90;;;;;;4989929;28;20190;-85
2022/03/19 07:35:43;;;;;;;43.10;23.83;;;12.80;99.90;;;;;;4978148;28;20221;-85
2022/03/19 07:38:10;;;;;;;44.88;21.48;;;13.10;99.90;;;;;;4989479;28;20176;-85
2022/03/19 07:43:23;;;;;;;43.58;22.60;;;12.80;99.90;;;;;;4990383;28;20264;-86
2022/03/19 07:45:49;;;;;;;38.67;23.13;;;13.20;99.90;;;;;;4973297;28;20353;-86
2022/03/19 07:48:15;;;;;;;38.50;23.03;;;13.50;99.90;;;;;;4972849;28;20207;-86
2022/03/19 07:50:40;;;;;;;39.00;21.63;;;13.50;99.90;;;;;;4987682;28;20816;-86
2022/03/19 07:53:07;;;;;;;40.93;22.90;;;13.40;99.90;;;;;;4973029;28;20435;-86
2022/03/19 07:55:32;;;;;;;43.72;23.30;;;13.50;99.90;;;;;;4976136;28;20218;-86
2022/03/19 07:57:58;;;;;;;41.90;22.90;;;13.60;99.90;;;;;;4989178;28;20211;-86
2022/03/19 08:00:24;;;;;;;47.47;24.60;;;13.50;99.90;;;;;;4989846;28;20441;-86
2022/03/19 08:02:51;;;;;;;38.77;22.70;;;13.80;99.90;;;;;;4988602;28;20190;-86
2022/03/19 08:05:16;;;;;;;47.45;26.48;;;14.00;99.90;;;;;;4984816;28;20182;-86
2022/03/19 08:07:42;;;;;;;37.93;23.30;;;13.80;99.90;;;;;;4979277;28;20790;-85
2022/03/19 08:10:11;;;;;;;45.37;23.77;;;14.20;99.90;;;;;;4974635;28;20182;-84
2022/03/19 08:12:38;;;;;;;42.13;23.10;;;14.20;99.90;;;;;;4972659;28;20186;-86
2022/03/19 08:15:06;;;;;;;40.27;23.23;;;14.60;99.90;;;;;;5001267;23;20497;-80
2022/03/19 08:17:32;;;;;;;38.07;22.30;;;14.60;99.90;;;;;;4987813;28;20442;-80
2022/03/19 08:19:58;;;;;;;41.27;23.00;;;15.00;99.90;;;;;;4982262;28;20452;-80
2022/03/19 08:22:25;;;;;;;39.77;21.67;;;14.80;99.90;;;;;;4987815;28;20501;-81
2022/03/19 08:24:52;;;;;;;42.47;23.17;;;14.40;99.90;;;;;;4986048;28;20501;-80
2022/03/19 08:27:18;;;;;;;42.20;22.10;;;14.10;99.90;;;;;;4984163;28;20473;-80
2022/03/19 08:29:43;;;;;;;42.73;24.87;;;14.00;99.90;;;;;;4983553;28;20435;-81
2022/03/19 08:32:10;;;;;;;43.87;22.23;;;13.90;99.90;;;;;;4983253;28;20998;-80
2022/03/19 08:34:36;;;;;;;40.93;23.30;;;13.70;99.90;;;;;;4977610;28;20530;-81
2022/03/19 08:37:02;;;;;;;38.43;22.90;;;13.70;99.90;;;;;;4997410;28;20889;-80
2022/03/19 08:42:12;;;;;;;39.30;22.30;;;13.10;99.90;;;;;;4977301;28;20626;-81
2022/03/19 08:44:38;;;;;;;42.33;21.93;;;13.10;99.90;;;;;;4996947;28;20211;-81
2022/03/19 08:47:03;;;;;;;36.40;21.47;;;13.40;99.90;;;;;;4981365;28;20210;-81
2022/03/19 08:49:29;;;;;;;37.47;22.60;;;13.30;99.90;;;;;;4977900;28;20191;-81
2022/03/19 08:51:54;;;;;;;45.80;22.27;;;13.00;99.90;;;;;;4979877;28;20703;-84
2022/03/19 08:54:20;;;;;;;42.83;23.57;;;13.10;99.90;;;;;;4974738;28;20638;-80
2022/03/19 08:56:48;;;;;;;38.57;21.97;;;13.00;99.90;;;;;;4975133;28;20238;-83
2022/03/19 08:59:16;;;;;;;53.80;24.70;;;13.30;99.90;;;;;;4976689;28;20495;-82
2022/03/19 09:01:43;;;;;;;38.92;22.40;;;13.50;99.90;;;;;;4973622;28;20183;-79
2022/03/19 09:04:10;;;;;;;47.03;25.98;;;13.40;99.90;;;;;;4969797;28;20651;-82
2022/03/19 09:06:36;;;;;;;51.85;24.67;;;13.30;99.90;;;;;;4969826;28;20297;-80
2022/03/19 09:09:03;;;;;;;45.10;25.70;;;13.50;99.90;;;;;;4974867;28;20663;-79
2022/03/19 09:11:33;;;;;;;45.67;25.15;;;13.50;99.90;;;;;;4974995;28;21000;-79
2022/03/19 09:14:00;;;;;;;44.05;24.92;;;13.40;99.90;;;;;;4977903;28;20641;-79
2022/03/19 09:16:25;;;;;;;38.20;22.42;;;13.70;99.90;;;;;;4967877;28;20207;-81
2022/03/19 09:18:52;;;;;;;43.07;25.60;;;13.40;99.90;;;;;;4974743;28;20843;-81
2022/03/19 09:21:18;;;;;;;43.47;24.63;;;13.80;99.90;;;;;;4972308;28;20195;-80
2022/03/19 09:23:49;;;;;;;43.63;24.63;;;13.30;99.90;;;;;;4973580;28;20201;-82
2022/03/19 09:26:15;;;;;;;46.17;24.65;;;12.80;99.90;;;;;;4979944;28;20888;-80
2022/03/19 09:28:40;;;;;;;48.17;26.38;;;12.60;99.90;;;;;;4977712;28;20214;-84
2022/03/19 09:31:06;;;;;;;50.53;28.43;;;12.80;99.90;;;;;;4977015;28;20203;-80
2022/03/19 09:33:32;;;;;;;47.07;28.50;;;12.70;99.90;;;;;;4978702;28;20275;-81
2022/03/19 09:36:01;;;;;;;51.97;28.57;;;12.60;99.90;;;;;;4979607;28;20204;-84
2022/03/19 09:38:30;;;;;;;50.33;27.37;;;12.90;99.90;;;;;;4977174;28;20478;-81
2022/03/19 09:40:56;;;;;;;52.10;29.17;;;13.10;99.30;;;;;;4978932;28;20918;-79
2022/03/19 09:43:23;;;;;;;51.70;28.17;;;13.70;99.90;;;;;;4980213;28;20214;-81
2022/03/19 09:45:49;;;;;;;51.43;30.17;;;14.10;97.80;;;;;;4980832;28;20873;-81
2022/03/19 09:48:15;;;;;;;47.37;29.50;;;14.00;97.30;;;;;;4983563;28;20526;-80
2022/03/19 09:50:41;;;;;;;50.73;29.67;;;13.70;97.10;;;;;;4985995;28;20434;-80
2022/03/19 09:53:09;;;;;;;57.80;33.27;;;14.40;97.50;;;;;;4985077;28;20195;-80
2022/03/19 09:55:38;;;;;;;60.10;31.83;;;15.40;97.90;;;;;;4984589;28;20463;-80
2022/03/19 09:58:04;;;;;;;51.67;29.53;;;16.10;94.50;;;;;;4987965;28;20439;-80
2022/03/19 10:00:31;;;;;;;46.27;26.20;;;16.20;94.30;;;;;;4986273;28;20438;-80
2022/03/19 10:03:02;;;;;;;48.93;29.57;;;16.40;91.50;;;;;;4982973;28;20442;-80
2022/03/19 10:08:36;;;;;;;48.83;29.27;;;16.10;90.90;;;;;;4984651;28;20441;-80
2022/03/19 10:11:13;;;;;;;58.73;27.40;;;15.30;91.10;;;;;;4982883;28;20504;-81
2022/03/19 10:13:43;;;;;;;51.83;30.27;;;14.30;91.10;;;;;;4982645;28;20431;-79
2022/03/19 10:16:09;;;;;;;49.40;28.50;;;13.00;93.00;;;;;;4990902;28;20501;-87
2022/03/19 10:18:37;;;;;;;47.88;26.70;;;12.70;94.60;;;;;;5005553;28;20520;-87
2022/03/19 10:21:12;;;;;;;51.67;27.63;;;12.30;94.70;;;;;;5002414;28;20254;-87
2022/03/19 10:23:42;;;;;;;55.22;28.95;;;11.80;94.80;;;;;;5011068;28;20509;-88
2022/03/19 10:26:21;;;;;;;42.75;23.85;;;11.60;96.60;;;;;;4996669;28;20208;-87
2022/03/19 10:28:56;;;;;;;54.03;26.92;;;11.50;96.30;;;;;;4977369;28;20632;-87
2022/03/19 10:31:33;;;;;;;54.95;27.65;;;11.40;97.20;;;;;;4975419;28;20190;-88
2022/03/19 10:33:59;;;;;;;54.83;24.48;;;11.60;96.90;;;;;;5001038;28;20189;-89
2022/03/19 10:36:34;;;;;;;45.37;27.30;;;11.50;96.30;;;;;;4993313;28;20251;-87
2022/03/19 10:39:04;;;;;;;49.20;23.80;;;11.40;96.60;;;;;;4977534;28;20438;-88
2022/03/19 10:41:34;;;;;;;43.47;23.45;;;11.50;97.40;;;;;;4999763;28;20840;-87
2022/03/19 10:44:11;;;;;;;41.38;22.13;;;11.60;96.30;;;;;;4975661;28;20218;-88
2022/03/19 10:46:37;;;;;;;44.95;23.48;;;11.70;96.00;;;;;;5007640;28;20266;-88
2022/03/19 10:49:02;;;;;;;42.00;24.00;;;11.80;94.70;;;;;;4994049;28;20273;-88
2022/03/19 10:51:30;;;;;;;33.37;19.47;;;11.80;95.60;;;;;;4994009;28;20182;-88
2022/03/19 10:53:56;;;;;;;32.83;19.33;;;11.60;95.10;;;;;;5015008;28;20282;-87
2022/03/19 10:56:23;;;;;;;32.95;18.80;;;11.50;94.40;;;;;;4987290;28;20218;-88
2022/03/19 10:58:49;;;;;;;26.80;15.38;;;11.40;94.40;;;;;;4995198;28;20242;-88
2022/03/19 11:01:16;;;;;;;37.63;18.93;;;11.60;93.60;;;;;;4995622;28;20642;-87
2022/03/19 11:03:45;;;;;;;24.45;14.02;;;11.60;93.00;;;;;;4996047;28;20163;-88
2022/03/19 11:06:39;;;;;;;29.25;15.38;;;11.70;93.20;;;;;;4993489;28;20206;-89
2022/03/19 11:09:09;;;;;;;26.25;16.23;;;11.70;94.00;;;;;;4993457;28;20179;-88
2022/03/19 11:11:40;;;;;;;32.70;15.77;;;11.70;94.50;;;;;;4990424;28;20262;-88
2022/03/19 11:14:08;;;;;;;22.80;13.55;;;11.80;94.50;;;;;;4992918;28;20183;-88
2022/03/19 11:17:24;;;;;;;22.10;12.27;;;12.10;94.40;;;;;;4997611;28;20796;-88
2022/03/19 11:20:11;;;;;;;19.75;12.35;;;12.10;93.30;;;;;;4995425;28;20206;-88
2022/03/19 11:22:57;;;;;;;21.60;11.32;;;11.70;92.50;;;;;;4995266;28;20198;-88
2022/03/19 11:25:26;;;;;;;23.45;10.82;;;11.80;92.30;;;;;;4993941;28;20195;-88
2022/03/19 11:27:55;;;;;;;17.45;11.35;;;11.70;92.00;;;;;;4994365;28;20257;-88
2022/03/19 11:30:24;;;;;;;21.80;9.95;;;11.70;92.20;;;;;;5010580;28;20183;-88
2022/03/19 11:33:05;;;;;;;24.83;11.45;;;12.60;92.60;;;;;;4997366;28;20225;-88
2022/03/19 11:35:32;;;;;;;17.92;10.75;;;12.00;91.40;;;;;;4996100;28;20285;-88
2022/03/19 11:38:01;;;;;;;19.88;11.70;;;;;;;;;;4996311;28;20163;-88
2022/03/19 11:40:29;;;;;;;17.08;9.25;;;12.70;91.20;;;;;;4997485;28;20175;-88
2022/03/19 11:42:55;;;;;;;16.35;9.05;;;12.50;90.20;;;;;;4997065;28;20178;-88
2022/03/19 11:45:22;;;;;;;14.23;8.75;;;15.40;92.00;;;;;;4996499;28;20667;-88
2022/03/19 11:47:47;;;;;;;22.17;8.07;;;12.20;88.40;;;;;;4996087;28;20168;-89
2022/03/19 11:50:24;;;;;;;14.70;7.60;;;11.90;90.10;;;;;;4996138;28;20175;-89
2022/03/19 11:52:53;;;;;;;13.85;8.25;;;11.70;91.10;;;;;;4997191;28;20632;-89
2022/03/19 11:55:19;;;;;;;11.95;7.65;;;11.50;87.30;;;;;;4995202;28;20206;-89
2022/03/19 11:57:58;;;;;;;8.02;4.90;;;11.40;90.00;;;;;;4995317;28;20175;-89
2022/03/19 12:00:30;;;;;;;9.05;5.72;;;11.50;84.20;;;;;;4995826;28;20175;-88
2022/03/19 12:03:15;;;;;;;14.93;6.97;;;11.70;85.30;;;;;;4995905;28;20198;-88
2022/03/19 12:05:43;;;;;;;11.80;6.30;;;11.70;86.90;;;;;;4996012;28;20583;-88
2022/03/19 12:08:17;;;;;;;17.17;6.13;;;11.80;86.50;;;;;;4995531;28;20687;-89
2022/03/19 12:10:54;;;;;;;12.05;7.47;;;12.10;87.70;;;;;;4994360;28;20656;-88
2022/03/19 12:13:27;;;;;;;11.93;5.88;;;12.30;85.10;;;;;;4996035;28;20171;-89
2022/03/19 12:15:57;;;;;;;8.52;5.20;;;12.40;85.40;;;;;;4995534;28;20218;-87
2022/03/19 12:18:42;;;;;;;13.00;5.90;;;12.10;78.30;;;;;;5012329;28;20175;-87
2022/03/19 12:21:11;;;;;;;9.88;5.88;;;11.70;79.00;;;;;;5011871;28;20167;-87
2022/03/19 12:23:40;;;;;;;12.40;5.60;;;11.70;80.10;;;;;;4995085;28;20207;-87
2022/03/19 12:26:08;;;;;;;8.52;5.05;;;11.70;80.80;;;;;;4994727;28;20205;-88
2022/03/19 12:28:34;;;;;;;10.50;6.35;;;11.90;80.80;;;;;;4995122;28;20183;-89
2022/03/19 12:31:08;;;;;;;12.50;6.57;;;12.10;79.80;;;;;;4993716;28;20171;-88
2022/03/19 12:33:34;;;;;;;11.47;5.97;;;12.50;81.40;;;;;;4994550;28;20926;-89
2022/03/19 12:36:17;;;;;;;10.95;6.28;;;12.80;80.80;;;;;;4996020;28;20465;-88
2022/03/19 12:38:42;;;;;;;12.57;6.78;;;12.00;78.20;;;;;;5005806;28;20294;-89
2022/03/19 12:41:24;;;;;;;15.07;6.40;;;11.90;77.40;;;;;;4996470;28;20619;-89
2022/03/19 12:43:51;;;;;;;11.80;6.95;;;11.90;78.10;;;;;;4995868;28;20271;-88
2022/03/19 12:46:31;;;;;;;12.23;5.57;;;12.10;80.00;;;;;;4995837;28;20207;-89
2022/03/19 12:49:09;;;;;;;13.98;6.32;;;12.30;75.50;;;;;;4984795;28;20182;-89
2022/03/19 12:51:39;;;;;;;11.63;5.95;;;12.30;77.40;;;;;;4995092;28;20187;-89
2022/03/19 12:54:24;;;;;;;9.93;6.00;;;12.50;79.60;;;;;;4997111;28;20191;-89
2022/03/19 12:56:50;;;;;;;9.18;5.20;;;12.70;76.10;;;;;;5012186;28;20290;-88